Time;durP1;ratioP1;P1;durP2;ratioP2;P2;SDS_P1;SDS_P2;PMS_P1;PMS_P2;Temp;Humidity;BMP_temperature;BMP_pressure;BME280_temperature;BME280_humidity;BME280_pressure;Samples;Min_cycle;Max_cycle;Signal;HPM_P1;HPM_P2
2022/08/01 00:01:46;;;;;;;0.30;0.30;;;19.90;1.00;;;;;;5033608;28;20509;-78
2022/08/01 00:04:12;;;;;;;0.30;0.30;;;20.00;1.00;;;;;;5029154;28;20184;-78
2022/08/01 00:06:38;;;;;;;0.30;0.30;;;19.90;1.00;;;;;;5030268;28;20188;-78
2022/08/01 00:09:03;;;;;;;0.40;0.40;;;20.30;1.00;;;;;;5029581;28;20177;-79
2022/08/01 00:11:29;;;;;;;0.30;0.30;;;19.90;1.00;;;;;;5026302;28;20801;-79
2022/08/01 00:13:54;;;;;;;0.30;0.30;;;19.90;1.00;;;;;;5024215;28;20215;-80
2022/08/01 00:16:22;;;;;;;0.30;0.30;;;19.80;1.00;;;;;;5027025;28;20226;-78
2022/08/01 00:18:49;;;;;;;0.40;0.40;;;19.60;1.00;;;;;;5029010;28;20180;-79
2022/08/01 00:21:15;;;;;;;0.30;0.30;;;19.70;1.00;;;;;;5029417;28;20501;-78
2022/08/01 00:23:40;;;;;;;0.30;0.30;;;19.70;1.00;;;;;;5028234;28;20216;-79
2022/08/01 00:26:06;;;;;;;0.40;0.40;;;19.70;1.00;;;;;;5026702;28;20185;-78
2022/08/01 00:28:31;;;;;;;0.40;0.40;;;19.60;1.00;;;;;;5026736;28;20176;-79
2022/08/01 00:30:57;;;;;;;0.40;0.40;;;19.70;1.00;;;;;;5024961;28;20188;-78
2022/08/01 00:33:23;;;;;;;0.40;0.40;;;19.60;1.00;;;;;;5022571;28;20204;-79
2022/08/01 00:35:48;;;;;;;0.33;0.33;;;19.50;1.00;;;;;;5024541;28;20562;-79
2022/08/01 00:38:14;;;;;;;0.30;0.30;;;19.50;22.30;;;;;;5023693;28;20176;-79
2022/08/01 00:40:39;;;;;;;0.30;0.30;;;19.40;85.60;;;;;;5023418;28;20681;-79
2022/08/01 00:43:05;;;;;;;0.30;0.30;;;19.40;99.90;;;;;;5022957;28;20307;-80
2022/08/01 00:45:31;;;;;;;0.40;0.40;;;19.30;99.90;;;;;;5024367;28;20654;-79
2022/08/01 00:47:56;;;;;;;0.20;0.20;;;19.30;99.90;;;;;;5025933;28;20204;-79
2022/08/01 00:50:22;;;;;;;0.30;0.30;;;19.40;99.90;;;;;;5024828;28;20681;-79
2022/08/01 00:52:48;;;;;;;0.30;0.30;;;19.20;99.90;;;;;;5023847;28;20264;-79
2022/08/01 00:55:15;;;;;;;0.30;0.30;;;19.10;99.90;;;;;;5025521;28;20573;-79
2022/08/01 00:57:41;;;;;;;0.30;0.30;;;19.10;99.90;;;;;;5025368;28;20196;-78
2022/08/01 01:00:08;;;;;;;0.33;0.33;;;19.10;99.90;;;;;;5025614;28;20303;-78
2022/08/01 01:02:34;;;;;;;0.30;0.30;;;19.10;99.90;;;;;;5024970;28;20212;-79
2022/08/01 01:05:00;;;;;;;0.30;0.30;;;19.00;99.90;;;;;;5026472;28;20242;-79
2022/08/01 01:07:42;;;;;;;0.30;0.30;;;19.00;1.00;;;;;;5027232;28;20638;-78
2022/08/01 01:10:30;;;;;;;0.40;0.40;;;19.00;1.00;;;;;;5026832;28;20600;-79
2022/08/01 01:13:05;;;;;;;0.30;0.30;;;18.90;1.00;;;;;;5015443;28;20215;-79
2022/08/01 01:15:42;;;;;;;0.30;0.30;;;18.80;1.00;;;;;;5027454;28;20176;-79
2022/08/01 01:18:23;;;;;;;0.30;0.30;;;18.80;1.00;;;;;;5028785;28;20207;-78
2022/08/01 01:21:12;;;;;;;0.30;0.30;;;19.20;1.00;;;;;;5027608;28;20570;-79
2022/08/01 01:23:56;;;;;;;0.30;0.30;;;18.80;1.00;;;;;;5024548;28;20231;-80
2022/08/01 01:26:33;;;;;;;0.30;0.30;;;18.80;1.00;;;;;;5010641;28;20195;-80
2022/08/01 01:29:15;;;;;;;0.30;0.30;;;18.70;99.90;;;;;;5026590;28;20206;-80
2022/08/01 01:31:49;;;;;;;0.30;0.30;;;18.60;99.90;;;;;;5026632;28;20344;-78
2022/08/01 01:34:19;;;;;;;0.40;0.40;;;18.60;1.00;;;;;;5026273;28;20179;-80
2022/08/01 01:36:47;;;;;;;0.30;0.30;;;18.60;1.00;;;;;;5029183;28;20237;-80
2022/08/01 01:39:14;;;;;;;0.30;0.30;;;18.50;1.00;;;;;;5030375;28;20245;-80
2022/08/01 01:41:41;;;;;;;0.30;0.30;;;18.50;1.00;;;;;;5029251;28;20589;-79
2022/08/01 01:44:09;;;;;;;0.37;0.37;;;18.40;1.00;;;;;;5028357;28;20196;-80
2022/08/01 01:46:36;;;;;;;0.30;0.30;;;18.50;1.00;;;;;;5029910;28;20185;-80
2022/08/01 01:49:02;;;;;;;0.40;0.40;;;18.40;99.90;;;;;;5028822;28;20183;-79
2022/08/01 01:51:29;;;;;;;0.30;0.30;;;18.40;99.90;;;;;;5030184;28;20199;-79
2022/08/01 01:53:56;;;;;;;0.30;0.30;;;18.30;1.00;;;;;;5027272;28;20215;-80
2022/08/01 01:56:22;;;;;;;0.40;0.40;;;18.20;1.00;;;;;;5028680;28;20191;-80
2022/08/01 01:58:54;;;;;;;0.40;0.40;;;18.00;1.00;;;;;;5028968;28;20184;-80
2022/08/01 02:01:23;;;;;;;0.30;0.30;;;17.90;1.00;;;;;;5027966;28;20280;-79
2022/08/01 02:03:50;;;;;;;0.30;0.30;;;17.50;36.90;;;;;;5026458;28;20229;-80
2022/08/01 02:06:16;;;;;;;0.40;0.40;;;17.40;99.90;;;;;;5027213;28;20188;-79
2022/08/01 02:08:43;;;;;;;0.40;0.40;;;17.40;1.00;;;;;;5029442;28;20197;-80
2022/08/01 02:11:18;;;;;;;0.40;0.40;;;17.30;1.00;;;;;;5023716;28;20204;-80
2022/08/01 02:13:52;;;;;;;0.30;0.30;;;17.40;1.00;;;;;;5025775;28;20204;-80
2022/08/01 02:16:20;;;;;;;0.30;0.30;;;17.50;1.00;;;;;;5028349;28;20177;-79
2022/08/01 02:18:46;;;;;;;0.30;0.30;;;17.50;1.00;;;;;;5028809;28;20177;-80
2022/08/01 02:21:15;;;;;;;0.40;0.40;;;17.60;99.90;;;;;;5027235;28;20246;-80
2022/08/01 02:23:43;;;;;;;0.30;0.30;;;17.60;99.90;;;;;;5027528;28;20212;-80
2022/08/01 02:26:13;;;;;;;0.30;0.30;;;17.50;1.00;;;;;;5021183;28;20197;-80
2022/08/01 02:29:16;;;;;;;0.30;0.30;;;17.50;99.90;;;;;;5028042;28;20176;-80
2022/08/01 02:31:46;;;;;;;0.40;0.40;;;17.50;99.90;;;;;;5027592;28;20200;-80
2022/08/01 02:34:16;;;;;;;0.30;0.30;;;17.40;99.90;;;;;;5026722;28;20212;-80
2022/08/01 02:36:45;;;;;;;0.30;0.30;;;17.50;99.90;;;;;;5029128;28;20189;-80
2022/08/01 02:39:13;;;;;;;0.30;0.30;;;17.40;99.90;;;;;;5027791;28;20192;-80
2022/08/01 02:41:47;;;;;;;0.30;0.30;;;17.30;1.00;;;;;;5027007;28;20247;-80
2022/08/01 02:44:21;;;;;;;0.40;0.40;;;17.20;1.00;;;;;;5024926;28;20199;-80
2022/08/01 02:46:56;;;;;;;0.40;0.40;;;17.30;1.00;;;;;;5021646;28;20247;-80
2022/08/01 02:49:23;;;;;;;0.40;0.40;;;17.30;99.90;;;;;;5025042;28;20176;-81
2022/08/01 02:51:50;;;;;;;0.30;0.30;;;17.30;1.00;;;;;;5026839;28;20200;-81
2022/08/01 02:54:18;;;;;;;0.40;0.40;;;17.30;1.00;;;;;;5024466;28;20264;-80
2022/08/01 02:56:44;;;;;;;0.30;0.30;;;17.30;1.00;;;;;;5025334;28;20215;-80
2022/08/01 02:59:16;;;;;;;0.30;0.30;;;17.10;1.00;;;;;;5025273;28;20664;-80
2022/08/01 03:01:44;;;;;;;0.40;0.40;;;17.20;1.00;;;;;;5025496;28;20231;-80
2022/08/01 03:04:10;;;;;;;0.30;0.30;;;17.20;1.00;;;;;;5024113;28;20239;-81
2022/08/01 03:06:37;;;;;;;0.30;0.30;;;17.20;1.00;;;;;;5025565;28;20207;-80
2022/08/01 03:09:04;;;;;;;0.37;0.37;;;17.20;1.00;;;;;;5025412;28;20916;-81
2022/08/01 03:11:31;;;;;;;0.30;0.30;;;17.30;1.00;;;;;;5024668;28;20278;-79
2022/08/01 03:14:00;;;;;;;0.30;0.30;;;17.20;1.00;;;;;;5023379;28;20231;-81
2022/08/01 03:16:28;;;;;;;0.30;0.30;;;17.20;1.00;;;;;;5024728;28;20207;-80
2022/08/01 03:18:56;;;;;;;0.40;0.40;;;17.50;1.00;;;;;;5024677;28;20653;-79
2022/08/01 03:21:23;;;;;;;0.40;0.40;;;17.20;1.00;;;;;;5024070;28;20208;-80
2022/08/01 03:23:53;;;;;;;0.30;0.30;;;17.30;1.00;;;;;;5023395;28;20227;-79
2022/08/01 03:26:19;;;;;;;0.40;0.40;;;17.40;1.00;;;;;;5024171;28;20180;-80
2022/08/01 03:28:46;;;;;;;0.30;0.30;;;17.30;1.00;;;;;;5024749;28;20302;-81
2022/08/01 03:31:13;;;;;;;0.30;0.30;;;17.40;1.00;;;;;;5025160;28;20199;-81
2022/08/01 03:33:39;;;;;;;0.40;0.40;;;17.40;1.00;;;;;;5024970;28;20756;-81
2022/08/01 03:36:09;;;;;;;0.40;0.40;;;17.40;1.00;;;;;;5026708;28;20188;-81
2022/08/01 03:38:37;;;;;;;0.40;0.40;;;17.30;1.00;;;;;;5026412;28;20193;-80
2022/08/01 03:41:08;;;;;;;0.30;0.30;;;17.30;1.00;;;;;;5026357;28;20622;-82
2022/08/01 03:43:41;;;;;;;0.40;0.40;;;17.30;1.00;;;;;;5017015;28;20200;-81
2022/08/01 03:46:13;;;;;;;0.30;0.30;;;17.30;1.00;;;;;;5026942;28;20180;-81
2022/08/01 03:48:46;;;;;;;0.30;0.30;;;17.30;1.00;;;;;;5027578;28;20183;-81
2022/08/01 03:51:13;;;;;;;0.30;0.30;;;17.30;1.00;;;;;;5025559;28;20184;-81
2022/08/01 03:53:41;;;;;;;0.40;0.40;;;17.30;1.00;;;;;;5024583;28;20204;-81
2022/08/01 03:56:09;;;;;;;0.30;0.30;;;17.30;1.00;;;;;;5024281;28;20191;-80
2022/08/01 03:58:38;;;;;;;0.50;0.50;;;17.30;1.00;;;;;;5022525;28;20239;-81
2022/08/01 04:01:05;;;;;;;0.30;0.30;;;17.30;1.00;;;;;;5023238;28;20215;-82
2022/08/01 04:03:30;;;;;;;0.33;0.33;;;17.30;1.00;;;;;;5024628;28;20204;-80
2022/08/01 04:05:56;;;;;;;0.40;0.40;;;17.30;1.00;;;;;;5026702;28;20272;-81
2022/08/01 04:08:21;;;;;;;0.37;0.37;;;17.30;1.00;;;;;;5027488;28;20179;-81
2022/08/01 04:10:47;;;;;;;0.43;0.43;;;17.20;1.00;;;;;;5027497;28;20204;-80
2022/08/01 04:13:12;;;;;;;0.30;0.30;;;17.20;1.00;;;;;;5023211;28;20260;-80
2022/08/01 04:15:38;;;;;;;0.37;0.37;;;17.10;1.00;;;;;;5025530;28;20181;-81
2022/08/01 04:18:03;;;;;;;0.40;0.40;;;17.10;1.00;;;;;;5025398;28;20199;-80
2022/08/01 04:20:29;;;;;;;0.50;0.50;;;17.00;1.00;;;;;;5021988;28;20251;-79
2022/08/01 04:22:55;;;;;;;0.40;0.40;;;17.10;1.00;;;;;;5029439;28;20212;-81
2022/08/01 04:25:29;;;;;;;0.30;0.30;;;17.10;1.00;;;;;;5029486;28;20184;-81
2022/08/01 04:27:57;;;;;;;0.37;0.37;;;17.00;1.00;;;;;;5030113;28;20179;-81
2022/08/01 04:30:25;;;;;;;0.37;0.37;;;17.00;1.00;;;;;;5026022;28;20216;-81
2022/08/01 04:32:54;;;;;;;0.37;0.37;;;17.10;1.00;;;;;;5026552;28;20211;-81
2022/08/01 04:35:20;;;;;;;0.30;0.30;;;17.20;1.00;;;;;;5027292;28;20183;-80
2022/08/01 04:37:49;;;;;;;0.40;0.40;;;17.40;1.00;;;;;;5027021;28;20176;-80
2022/08/01 04:40:17;;;;;;;0.30;0.30;;;17.40;1.00;;;;;;5025756;28;20223;-81
2022/08/01 04:42:42;;;;;;;0.50;0.50;;;17.70;1.00;;;;;;5026003;28;20200;-81
2022/08/01 04:45:09;;;;;;;0.40;0.40;;;17.80;1.00;;;;;;5028528;28;20187;-81
2022/08/01 04:47:36;;;;;;;0.37;0.37;;;17.90;1.00;;;;;;5025580;28;20381;-81
2022/08/01 04:50:06;;;;;;;0.30;0.30;;;18.00;1.00;;;;;;5026623;28;20188;-81
2022/08/01 04:52:34;;;;;;;0.30;0.30;;;18.10;1.00;;;;;;5026343;28;20193;-82
2022/08/01 04:55:00;;;;;;;0.30;0.30;;;18.30;99.90;;;;;;5027707;28;20616;-81
2022/08/01 04:57:25;;;;;;;0.40;0.40;;;18.40;99.90;;;;;;5027055;28;20190;-81
2022/08/01 04:59:56;;;;;;;0.30;0.30;;;18.50;99.90;;;;;;5027507;28;20192;-80
2022/08/01 05:02:22;;;;;;;0.30;0.30;;;18.70;99.90;;;;;;5028245;28;20216;-80
2022/08/01 05:04:48;;;;;;;0.30;0.30;;;18.80;99.90;;;;;;5031739;28;20176;-81
2022/08/01 05:07:15;;;;;;;0.40;0.40;;;18.70;99.90;;;;;;5033277;28;20187;-79
2022/08/01 05:09:41;;;;;;;0.30;0.30;;;18.90;99.90;;;;;;5033122;28;20244;-81
2022/08/01 05:12:08;;;;;;;0.40;0.40;;;18.80;26.20;;;;;;5034184;28;20180;-80
2022/08/01 05:14:34;;;;;;;0.30;0.30;;;18.60;1.00;;;;;;5034412;28;20693;-82
2022/08/01 05:17:02;;;;;;;0.40;0.40;;;18.50;1.00;;;;;;5034471;28;20260;-81
2022/08/01 05:19:29;;;;;;;0.30;0.30;;;18.50;1.00;;;;;;5032819;28;20181;-82
2022/08/01 05:21:55;;;;;;;0.40;0.40;;;18.50;1.00;;;;;;5033259;28;20220;-80
2022/08/01 05:24:20;;;;;;;0.33;0.33;;;18.30;1.00;;;;;;5031453;28;20240;-79
2022/08/01 05:26:46;;;;;;;0.40;0.40;;;18.20;1.00;;;;;;5029920;28;20172;-79
2022/08/01 05:29:11;;;;;;;0.40;0.40;;;18.40;1.00;;;;;;5030319;28;20661;-79
2022/08/01 05:31:37;;;;;;;0.40;0.40;;;18.60;1.00;;;;;;5031208;28;20177;-79
2022/08/01 05:34:03;;;;;;;0.40;0.40;;;19.00;1.00;;;;;;5031551;28;20231;-77
2022/08/01 05:36:29;;;;;;;0.30;0.30;;;19.50;99.90;;;;;;5031765;28;20181;-77
2022/08/01 05:38:55;;;;;;;0.30;0.30;;;19.60;1.00;;;;;;5030042;28;20187;-77
2022/08/01 05:41:20;;;;;;;0.30;0.30;;;19.50;1.00;;;;;;5031400;28;20200;-77
2022/08/01 05:43:46;;;;;;;0.30;0.30;;;19.40;99.90;;;;;;5036592;28;20205;-78
2022/08/01 05:46:12;;;;;;;0.40;0.40;;;19.40;1.00;;;;;;5036711;28;20676;-80
2022/08/01 05:48:37;;;;;;;0.40;0.40;;;19.70;1.00;;;;;;5028826;28;20177;-78
2022/08/01 05:51:03;;;;;;;0.30;0.30;;;19.90;1.00;;;;;;5034637;28;20184;-78
2022/08/01 05:53:29;;;;;;;0.30;0.30;;;20.20;99.90;;;;;;5037982;28;20239;-77
2022/08/01 05:55:54;;;;;;;0.30;0.30;;;20.40;1.00;;;;;;5038791;28;20180;-77
2022/08/01 05:58:20;;;;;;;0.40;0.40;;;21.20;1.00;;;;;;5039273;28;20191;-77
2022/08/01 06:00:46;;;;;;;0.30;0.30;;;21.30;1.00;;;;;;5038962;28;20204;-77
2022/08/01 06:03:11;;;;;;;0.30;0.30;;;21.10;1.00;;;;;;5039382;28;20383;-78
2022/08/01 06:05:37;;;;;;;0.20;0.20;;;20.80;1.00;;;;;;5037926;28;20164;-81
2022/08/01 06:08:03;;;;;;;0.30;0.30;;;20.60;1.00;;;;;;5037604;28;20176;-79
2022/08/01 06:10:29;;;;;;;0.30;0.30;;;20.40;1.00;;;;;;5035708;28;20219;-85
2022/08/01 06:12:54;;;;;;;0.30;0.30;;;20.20;99.90;;;;;;5038766;28;20192;-87
2022/08/01 06:15:20;;;;;;;0.30;0.30;;;20.20;4.50;;;;;;5039538;28;20187;-87
2022/08/01 06:17:45;;;;;;;0.30;0.30;;;20.20;1.00;;;;;;5039716;28;20176;-85
2022/08/01 06:20:11;;;;;;;0.30;0.30;;;20.30;1.00;;;;;;5037299;28;20296;-85
2022/08/01 06:22:37;;;;;;;0.30;0.30;;;20.60;1.00;;;;;;5034471;28;20228;-85
2022/08/01 06:25:02;;;;;;;0.30;0.30;;;21.10;1.00;;;;;;5030592;28;20630;-84
2022/08/01 06:27:28;;;;;;;0.30;0.30;;;21.30;1.00;;;;;;5028874;28;20177;-84
2022/08/01 06:29:54;;;;;;;0.30;0.30;;;21.40;1.00;;;;;;5027586;28;20172;-83
2022/08/01 06:32:22;;;;;;;0.30;0.30;;;21.30;1.00;;;;;;5032896;28;20196;-86
2022/08/01 06:34:48;;;;;;;0.30;0.30;;;21.50;1.00;;;;;;5035819;28;20215;-85
2022/08/01 06:37:15;;;;;;;0.30;0.30;;;21.80;99.90;;;;;;5038233;28;20181;-83
2022/08/01 06:39:41;;;;;;;0.30;0.30;;;21.90;99.90;;;;;;5032876;28;20181;-84
2022/08/01 06:42:06;;;;;;;0.30;0.30;;;22.10;1.00;;;;;;5033494;28;20226;-80
2022/08/01 06:44:32;;;;;;;0.30;0.30;;;22.20;99.90;;;;;;5035011;28;20180;-81
2022/08/01 06:46:58;;;;;;;0.30;0.30;;;22.70;1.00;;;;;;5034809;28;20199;-78
2022/08/01 06:49:24;;;;;;;0.30;0.30;;;23.00;99.90;;;;;;5032697;28;20228;-80
2022/08/01 06:51:49;;;;;;;0.30;0.30;;;23.20;99.90;;;;;;5031038;28;20165;-82
2022/08/01 06:54:16;;;;;;;0.30;0.30;;;23.00;1.00;;;;;;5035254;28;20187;-82
2022/08/01 06:56:42;;;;;;;0.30;0.30;;;22.70;99.90;;;;;;5033519;28;20173;-82
2022/08/01 06:59:08;;;;;;;0.30;0.30;;;22.80;1.00;;;;;;5035015;28;20172;-82
2022/08/01 07:01:34;;;;;;;0.20;0.20;;;23.50;1.00;;;;;;5035006;28;20211;-80
2022/08/01 07:03:59;;;;;;;0.30;0.30;;;23.50;99.90;;;;;;5033325;28;20196;-80
2022/08/01 07:06:25;;;;;;;0.30;0.30;;;23.40;99.90;;;;;;5031216;28;20185;-78
2022/08/01 07:08:52;;;;;;;0.30;0.30;;;23.40;99.90;;;;;;5024249;28;20654;-83
2022/08/01 07:11:18;;;;;;;0.30;0.30;;;23.50;99.90;;;;;;5028386;28;20192;-82
2022/08/01 07:13:45;;;;;;;0.30;0.30;;;24.00;99.90;;;;;;5026983;28;20207;-81
2022/08/01 07:16:11;;;;;;;0.30;0.30;;;24.20;37.50;;;;;;5025974;28;20183;-80
2022/08/01 07:18:37;;;;;;;0.30;0.30;;;24.00;1.00;;;;;;5022893;28;20180;-77
2022/08/01 07:21:02;;;;;;;0.30;0.30;;;23.80;1.00;;;;;;5019177;28;20250;-82
2022/08/01 07:23:28;;;;;;;0.30;0.30;;;23.70;1.00;;;;;;5016352;28;20238;-81
2022/08/01 07:25:53;;;;;;;0.30;0.30;;;24.00;1.00;;;;;;5016077;28;20181;-79
2022/08/01 07:28:19;;;;;;;0.40;0.40;;;23.70;1.00;;;;;;5016393;28;20183;-80
2022/08/01 07:30:45;;;;;;;0.30;0.30;;;24.10;1.00;;;;;;5019877;28;20207;-79
2022/08/01 07:33:10;;;;;;;0.23;0.23;;;24.30;1.00;;;;;;5025105;28;20193;-80
2022/08/01 07:35:38;;;;;;;0.30;0.30;;;24.70;1.00;;;;;;5023720;28;20206;-80
2022/08/01 07:38:04;;;;;;;0.30;0.30;;;24.80;1.00;;;;;;5026200;28;20176;-81
2022/08/01 07:40:30;;;;;;;0.30;0.30;;;25.00;1.00;;;;;;5024256;28;20603;-81
2022/08/01 07:42:55;;;;;;;0.30;0.30;;;25.20;1.00;;;;;;5023772;28;20231;-79
2022/08/01 07:45:21;;;;;;;0.23;0.23;;;25.60;1.00;;;;;;5026062;28;20189;-78
2022/08/01 07:47:49;;;;;;;0.30;0.30;;;25.80;1.00;;;;;;5024696;28;20180;-79
2022/08/01 07:50:14;;;;;;;0.40;0.40;;;26.10;1.00;;;;;;5023644;28;20583;-79
2022/08/01 07:52:40;;;;;;;0.23;0.23;;;26.50;1.00;;;;;;5033521;28;20286;-77
2022/08/01 07:55:06;;;;;;;0.47;0.47;;;26.00;1.00;;;;;;5029949;28;20173;-79
2022/08/01 07:57:32;;;;;;;0.40;0.40;;;26.40;1.00;;;;;;5020331;28;20180;-79
2022/08/01 07:59:57;;;;;;;0.50;0.50;;;27.20;1.00;;;;;;5021406;28;20304;-81
2022/08/01 08:02:23;;;;;;;0.32;0.32;;;27.70;1.00;;;;;;5029150;28;20224;-81
2022/08/01 08:04:49;;;;;;;0.47;0.47;;;28.30;1.00;;;;;;5027344;28;20164;-80
2022/08/01 08:07:14;;;;;;;0.50;0.50;;;28.60;1.00;;;;;;5040079;28;20211;-81
2022/08/01 08:09:40;;;;;;;0.52;0.52;;;28.60;1.00;;;;;;5018786;28;20181;-81
2022/08/01 08:12:06;;;;;;;0.60;0.60;;;27.20;1.00;;;;;;5024504;23;20216;-78
2022/08/01 08:14:31;;;;;;;0.53;0.53;;;26.70;1.00;;;;;;5032085;28;20637;-77
2022/08/01 08:16:57;;;;;;;0.50;0.50;;;26.20;1.00;;;;;;5031904;28;20180;-76
2022/08/01 08:19:22;;;;;;;0.50;0.50;;;26.40;1.00;;;;;;5030460;28;20183;-78
2022/08/01 08:21:48;;;;;;;0.50;0.50;;;27.60;1.00;;;;;;5030921;28;20202;-79
2022/08/01 08:24:19;;;;;;;0.60;0.60;;;28.40;1.00;;;;;;5031341;28;20163;-78
2022/08/01 08:26:48;;;;;;;0.40;0.40;;;29.00;1.00;;;;;;5030152;28;20192;-77
2022/08/01 08:29:14;;;;;;;0.50;0.50;;;29.30;1.00;;;;;;5034352;28;20180;-76
2022/08/01 08:31:40;;;;;;;0.45;0.45;;;29.50;1.00;;;;;;5037030;28;20168;-77
2022/08/01 08:34:06;;;;;;;0.40;0.40;;;29.10;1.00;;;;;;5027967;28;20199;-76
2022/08/01 08:36:32;;;;;;;0.50;0.50;;;29.30;1.00;;;;;;5030362;28;20181;-77
2022/08/01 08:39:00;;;;;;;0.30;0.30;;;29.30;1.00;;;;;;5041129;28;20172;-75
2022/08/01 08:41:26;;;;;;;0.45;0.45;;;29.50;1.00;;;;;;5040724;28;20239;-76
2022/08/01 08:43:53;;;;;;;0.13;0.13;;;29.70;1.00;;;;;;5042809;28;20707;-76
2022/08/01 08:46:20;;;;;;;0.10;0.10;;;30.10;1.00;;;;;;5051293;28;20175;-76
2022/08/01 08:48:45;;;;;;;0.20;0.20;;;30.80;1.00;;;;;;5044379;28;20185;-79
2022/08/01 08:51:12;;;;;;;0.30;0.30;;;29.80;1.00;;;;;;5038404;28;20178;-78
2022/08/01 08:53:43;;;;;;;0.20;0.20;;;30.20;1.00;;;;;;5036118;28;20228;-77
2022/08/01 08:56:11;;;;;;;0.20;0.20;;;30.00;1.00;;;;;;5035928;28;20549;-77
2022/08/01 08:58:37;;;;;;;0.25;0.25;;;30.60;1.00;;;;;;5036017;28;20632;-76
2022/08/01 09:01:06;;;;;;;0.30;0.30;;;31.50;1.00;;;;;;5034908;28;20208;-76
2022/08/01 09:03:32;;;;;;;0.40;0.40;;;31.00;1.00;;;;;;5035050;28;20669;-78
2022/08/01 09:05:58;;;;;;;0.57;0.57;;;29.70;1.00;;;;;;5035216;28;20218;-77
2022/08/01 09:08:23;;;;;;;0.40;0.40;;;29.10;1.00;;;;;;5034290;28;20797;-77
2022/08/01 09:10:49;;;;;;;0.52;0.52;;;29.00;1.00;;;;;;5034100;28;20259;-78
2022/08/01 09:13:15;;;;;;;0.40;0.40;;;28.40;1.00;;;;;;5037320;28;20238;-77
2022/08/01 09:15:46;;;;;;;0.50;0.50;;;28.50;1.00;;;;;;5034675;28;20544;-77
2022/08/01 09:18:31;;;;;;;0.65;0.65;;;29.20;1.00;;;;;;5034595;28;20175;-76
2022/08/01 09:21:06;;;;;;;0.38;0.38;;;29.90;1.00;;;;;;5044264;28;20206;-76
2022/08/01 09:23:45;;;;;;;0.40;0.40;;;30.30;1.00;;;;;;5054465;28;20190;-76
2022/08/01 09:26:12;;;;;;;0.50;0.50;;;30.50;1.00;;;;;;5054411;28;20171;-76
2022/08/01 09:28:38;;;;;;;0.40;0.40;;;30.40;1.00;;;;;;5054420;28;20258;-76
2022/08/01 09:31:12;;;;;;;0.57;0.57;;;30.50;1.00;;;;;;5053899;28;20182;-76
2022/08/01 09:33:56;;;;;;;0.52;0.52;;;30.50;1.00;;;;;;5054144;28;20195;-76
2022/08/01 09:36:24;;;;;;;0.40;0.40;;;29.50;1.00;;;;;;5054256;28;20182;-76
2022/08/01 09:38:52;;;;;;;0.60;0.60;;;28.70;1.00;;;;;;5054034;28;20182;-76
2022/08/01 09:41:17;;;;;;;0.50;0.50;;;28.40;1.00;;;;;;5045464;28;20575;-77
2022/08/01 09:43:50;;;;;;;0.43;0.43;;;28.30;1.00;;;;;;5033712;28;20192;-77
2022/08/01 09:46:16;;;;;;;0.57;0.57;;;28.80;1.00;;;;;;5033826;28;20206;-77
2022/08/01 09:48:56;;;;;;;0.60;0.60;;;28.60;1.00;;;;;;5033520;28;20180;-78
2022/08/01 09:51:36;;;;;;;0.60;0.60;;;29.20;1.00;;;;;;5034166;28;20187;-76
2022/08/01 09:54:04;;;;;;;0.52;0.52;;;28.80;1.00;;;;;;5033845;28;20191;-76
2022/08/01 09:56:40;;;;;;;0.60;0.60;;;28.80;1.00;;;;;;5033878;28;20182;-76
2022/08/01 09:59:06;;;;;;;0.50;0.50;;;28.50;1.00;;;;;;5033283;28;20199;-76
2022/08/01 10:01:46;;;;;;;0.60;0.60;;;28.80;1.00;;;;;;5033537;28;20204;-76
2022/08/01 10:04:15;;;;;;;0.60;0.60;;;30.10;1.00;;;;;;5033564;28;20676;-77
2022/08/01 10:06:43;;;;;;;0.60;0.60;;;30.90;1.00;;;;;;5034102;28;20176;-76
2022/08/01 10:09:10;;;;;;;0.50;0.50;;;31.10;1.00;;;;;;5032449;28;20187;-78
2022/08/01 10:11:38;;;;;;;0.50;0.50;;;31.50;1.00;;;;;;5033717;28;20644;-77
2022/08/01 10:14:05;;;;;;;0.60;0.60;;;31.60;1.00;;;;;;5033832;28;20278;-78
2022/08/01 10:16:33;;;;;;;0.45;0.45;;;32.10;1.00;;;;;;5032804;28;20187;-77
2022/08/01 10:19:00;;;;;;;0.50;0.50;;;31.80;1.00;;;;;;5032686;28;20302;-78
2022/08/01 10:21:27;;;;;;;0.40;0.40;;;32.30;1.00;;;;;;5018054;28;20209;-77
2022/08/01 10:23:55;;;;;;;0.60;0.60;;;32.70;1.00;;;;;;5032240;28;20591;-77
2022/08/01 10:26:24;;;;;;;0.50;0.50;;;31.70;1.00;;;;;;5013835;28;20548;-78
2022/08/01 10:28:52;;;;;;;0.50;0.50;;;30.80;1.00;;;;;;5012967;28;20191;-80
2022/08/01 10:31:19;;;;;;;0.50;0.50;;;29.90;1.00;;;;;;5012952;28;20576;-76
2022/08/01 10:33:44;;;;;;;0.60;0.60;;;30.10;1.00;;;;;;5012752;28;20580;-76
2022/08/01 10:36:10;;;;;;;0.50;0.50;;;29.30;1.00;;;;;;5013053;28;20169;-76
2022/08/01 10:38:36;;;;;;;0.60;0.60;;;29.40;1.00;;;;;;5013020;28;20316;-77
2022/08/01 10:41:03;;;;;;;0.65;0.65;;;29.90;1.00;;;;;;5012281;28;20204;-78
2022/08/01 10:43:29;;;;;;;0.47;0.47;;;29.40;1.00;;;;;;5012838;28;20200;-76
2022/08/01 10:45:55;;;;;;;0.70;0.70;;;29.30;1.00;;;;;;5013110;28;20273;-78
2022/08/01 10:48:46;;;;;;;0.70;0.70;;;30.10;1.00;;;;;;5012641;28;20223;-76
2022/08/01 10:51:15;;;;;;;0.60;0.60;;;30.80;1.00;;;;;;5012330;28;20295;-77
2022/08/01 10:53:47;;;;;;;0.60;0.60;;;31.60;1.00;;;;;;5021330;28;20245;-79
2022/08/01 10:56:13;;;;;;;0.60;0.60;;;31.90;1.00;;;;;;5031031;28;20167;-77
2022/08/01 10:58:41;;;;;;;0.55;0.55;;;31.20;1.00;;;;;;5032879;28;20768;-77
2022/08/01 11:01:23;;;;;;;0.65;0.65;;;30.40;1.00;;;;;;5031845;28;20207;-78
2022/08/01 11:04:01;;;;;;;0.50;0.50;;;31.00;1.00;;;;;;5032765;28;20756;-78
2022/08/01 11:06:33;;;;;;;0.60;0.60;;;30.40;1.00;;;;;;5032005;28;20184;-76
2022/08/01 11:09:11;;;;;;;0.60;0.60;;;30.30;1.00;;;;;;5031254;28;20637;-76
2022/08/01 11:12:03;;;;;;;0.63;0.63;;;30.20;1.00;;;;;;5033500;28;20263;-76
2022/08/01 11:14:29;;;;;;;0.38;0.38;;;30.10;1.00;;;;;;5037324;28;20198;-77
2022/08/01 11:16:55;;;;;;;0.45;0.45;;;30.10;1.00;;;;;;5052528;28;20179;-77
2022/08/01 11:19:21;;;;;;;0.50;0.50;;;30.70;1.00;;;;;;5051955;28;20715;-77
2022/08/01 11:21:53;;;;;;;0.40;0.40;;;31.40;1.00;;;;;;5052385;28;20221;-77
2022/08/01 11:24:46;;;;;;;0.68;0.68;;;32.50;1.00;;;;;;5052182;28;20167;-76
2022/08/01 11:27:19;;;;;;;0.55;0.55;;;31.80;1.00;;;;;;5052038;28;20600;-77
2022/08/01 11:30:10;;;;;;;0.50;0.50;;;31.10;1.00;;;;;;5051617;28;20254;-76
2022/08/01 11:32:55;;;;;;;0.60;0.60;;;30.60;1.00;;;;;;5051867;28;20225;-76
2022/08/01 11:35:24;;;;;;;0.60;0.60;;;30.50;1.00;;;;;;5051801;28;20683;-76
2022/08/01 11:37:56;;;;;;;0.60;0.60;;;30.70;1.00;;;;;;5052046;28;20374;-76
2022/08/01 11:40:27;;;;;;;0.50;0.50;;;30.00;1.00;;;;;;5051252;28;20218;-76
2022/08/01 11:43:16;;;;;;;0.60;0.60;;;29.40;1.00;;;;;;5051638;28;20199;-75
2022/08/01 11:45:54;;;;;;;0.40;0.40;;;28.80;1.00;;;;;;5051483;28;20617;-76
2022/08/01 11:48:22;;;;;;;0.50;0.50;;;28.40;1.00;;;;;;5051895;28;20201;-76
2022/08/01 11:50:50;;;;;;;0.50;0.50;;;27.90;1.00;;;;;;5051170;28;20278;-76
2022/08/01 11:53:18;;;;;;;0.60;0.60;;;27.70;1.00;;;;;;5051420;28;20199;-76
2022/08/01 11:55:49;;;;;;;0.50;0.50;;;27.50;1.00;;;;;;5051422;28;20194;-78
2022/08/01 11:58:15;;;;;;;0.43;0.43;;;27.50;1.00;;;;;;5051616;28;20610;-75
2022/08/01 12:00:49;;;;;;;0.50;0.50;;;27.30;1.00;;;;;;5050926;28;20302;-75
2022/08/01 12:03:15;;;;;;;0.50;0.50;;;27.20;1.00;;;;;;5051473;28;20663;-77
2022/08/01 12:05:43;;;;;;;0.40;0.40;;;27.10;1.00;;;;;;5052218;28;20224;-76
2022/08/01 12:08:09;;;;;;;0.40;0.40;;;26.90;1.00;;;;;;5052959;28;20175;-80
2022/08/01 12:10:38;;;;;;;0.50;0.50;;;26.70;1.00;;;;;;5051714;28;20193;-80
2022/08/01 12:13:06;;;;;;;0.47;0.47;;;26.60;1.00;;;;;;5052056;28;20245;-79
2022/08/01 12:15:37;;;;;;;0.33;0.33;;;26.60;1.00;;;;;;5037240;28;20552;-78
2022/08/01 12:18:05;;;;;;;0.50;0.50;;;26.60;1.00;;;;;;5032026;28;20267;-79
2022/08/01 12:20:36;;;;;;;0.40;0.40;;;26.30;1.00;;;;;;5033558;28;20187;-77
2022/08/01 12:23:07;;;;;;;0.50;0.50;;;26.30;1.00;;;;;;5042593;28;20203;-78
2022/08/01 12:25:39;;;;;;;0.40;0.40;;;26.20;1.00;;;;;;5044461;28;20175;-80
2022/08/01 12:28:06;;;;;;;0.43;0.43;;;26.60;1.00;;;;;;5041387;28;20184;-79
2022/08/01 12:30:36;;;;;;;0.40;0.40;;;27.40;1.00;;;;;;5041845;28;20780;-77
2022/08/01 12:33:04;;;;;;;0.30;0.30;;;27.50;1.00;;;;;;5037411;28;20194;-76
2022/08/01 12:35:31;;;;;;;0.37;0.37;;;27.50;1.00;;;;;;5040305;28;20629;-77
2022/08/01 12:38:04;;;;;;;0.30;0.30;;;27.20;1.00;;;;;;5042004;28;20207;-76
2022/08/01 12:40:32;;;;;;;0.30;0.30;;;27.20;1.00;;;;;;5038121;28;20197;-76
2022/08/01 12:43:03;;;;;;;0.40;0.40;;;27.40;1.00;;;;;;5035806;28;20209;-78
2022/08/01 12:45:39;;;;;;;0.50;0.50;;;27.20;1.00;;;;;;5032542;28;20180;-78
2022/08/01 12:48:15;;;;;;;0.40;0.40;;;27.20;1.00;;;;;;5031343;28;20183;-78
2022/08/01 12:50:44;;;;;;;0.30;0.30;;;27.20;1.00;;;;;;5033177;28;20180;-79
2022/08/01 12:53:10;;;;;;;0.50;0.50;;;27.20;1.00;;;;;;5030942;28;20195;-78
2022/08/01 12:55:51;;;;;;;0.40;0.40;;;27.00;1.00;;;;;;5033503;28;20291;-77
2022/08/01 12:58:18;;;;;;;0.30;0.30;;;27.30;1.00;;;;;;5032021;28;20179;-79
2022/08/01 13:00:46;;;;;;;0.40;0.40;;;28.00;1.00;;;;;;5032990;28;20216;-78
2022/08/01 13:03:19;;;;;;;0.50;0.50;;;28.80;1.00;;;;;;5043392;28;20203;-78